createdAt,value
2023-05-10T00:01:00.795Z,12.07
2023-05-10T00:02:03.321Z,11.91
2023-05-10T00:03:06.185Z,11.87
2023-05-10T00:04:08.720Z,11.93
2023-05-10T00:05:11.250Z,11.91
2023-05-10T00:06:13.631Z,11.92
2023-05-10T00:07:18.082Z,11.84
2023-05-10T00:08:20.640Z,11.76
2023-05-10T00:09:22.795Z,11.70
2023-05-10T00:10:25.155Z,11.79
2023-05-10T00:11:27.334Z,11.94
2023-05-10T00:12:29.469Z,12.08
2023-05-10T00:13:32.840Z,12.00
2023-05-10T00:14:35.019Z,11.93
2023-05-10T00:15:37.386Z,11.72
2023-05-10T00:16:40.156Z,11.73
2023-05-10T00:17:42.394Z,11.83
2023-05-10T00:18:44.816Z,11.90
2023-05-10T00:19:47.044Z,12.08
2023-05-10T00:20:49.893Z,12.13
2023-05-10T00:21:52.290Z,12.18
2023-05-10T00:22:54.484Z,12.07
2023-05-10T00:23:56.894Z,12.02
2023-05-10T00:24:59.813Z,11.93
2023-05-10T00:26:02.145Z,11.92
2023-05-10T00:27:04.996Z,11.64
2023-05-10T00:28:07.344Z,11.57
2023-05-10T00:29:09.741Z,11.55
2023-05-10T00:30:12.029Z,11.38
2023-05-10T00:31:15.628Z,11.42
2023-05-10T00:32:17.999Z,11.48
2023-05-10T00:33:20.330Z,11.62
2023-05-10T00:34:23.854Z,11.75
2023-05-10T00:35:27.031Z,11.65
2023-05-10T00:36:29.687Z,11.47
2023-05-10T00:37:32.074Z,11.42
2023-05-10T00:38:35.067Z,11.52
2023-05-10T00:39:37.442Z,11.52
2023-05-10T00:40:39.698Z,11.65
2023-05-10T00:41:47.000Z,11.73
2023-05-10T00:42:49.344Z,11.75
2023-05-10T00:43:51.914Z,11.61
2023-05-10T00:44:54.116Z,11.30
2023-05-10T00:45:56.981Z,11.30
2023-05-10T00:47:00.307Z,11.27
2023-05-10T00:48:03.806Z,11.25
2023-05-10T00:49:07.181Z,11.32
2023-05-10T00:50:10.296Z,11.54
2023-05-10T00:51:12.544Z,11.56
2023-05-10T00:52:15.172Z,11.47
2023-05-10T00:53:17.939Z,11.23
2023-05-10T00:54:20.427Z,11.29
2023-05-10T00:55:22.706Z,11.15
2023-05-10T00:56:26.226Z,11.04
2023-05-10T00:57:28.406Z,11.09
2023-05-10T00:58:31.935Z,11.12
2023-05-10T00:59:34.544Z,10.93
2023-05-10T01:00:39.549Z,10.95
2023-05-10T01:01:42.054Z,10.99
2023-05-10T01:02:45.049Z,10.96
2023-05-10T01:03:48.202Z,11.14
2023-05-10T01:04:53.142Z,11.24
2023-05-10T01:05:56.192Z,11.35
2023-05-10T01:06:58.814Z,11.40
2023-05-10T01:08:01.028Z,11.28
2023-05-10T01:09:03.195Z,11.17
2023-05-10T01:10:07.820Z,11.28
2023-05-10T01:11:10.520Z,11.31
2023-05-10T01:12:13.381Z,11.30
2023-05-10T01:13:25.933Z,11.31
2023-05-10T01:14:29.330Z,11.23
2023-05-10T01:15:32.402Z,11.20
2023-05-10T01:16:39.168Z,11.01
2023-05-10T01:17:45.348Z,10.89
2023-05-10T01:18:48.052Z,10.95
2023-05-10T01:19:50.912Z,10.97
2023-05-10T01:21:10.736Z,11.09
2023-05-10T01:23:24.239Z,11.26
2023-05-10T01:24:52.074Z,11.13
2023-05-10T01:26:08.822Z,11.03
2023-05-10T01:27:26.232Z,10.94
2023-05-10T01:28:34.161Z,11.04
2023-05-10T01:30:14.631Z,11.04
2023-05-10T01:32:09.172Z,11.02
2023-05-10T01:33:17.207Z,11.08
2023-05-10T01:34:35.197Z,11.11
2023-05-10T01:35:48.816Z,11.06
2023-05-10T01:37:14.304Z,11.13
2023-05-10T01:38:43.276Z,10.95
2023-05-10T01:40:06.949Z,10.84
2023-05-10T01:41:16.150Z,10.85
2023-05-10T01:42:27.512Z,10.70
2023-05-10T01:43:43.178Z,10.61
2023-05-10T01:45:11.814Z,10.62
2023-05-10T01:46:29.102Z,10.89
2023-05-10T01:47:51.375Z,10.82
2023-05-10T01:48:56.706Z,10.69
2023-05-10T01:50:04.086Z,10.66
2023-05-10T01:51:07.802Z,10.73
2023-05-10T01:52:13.578Z,10.50
2023-05-10T01:53:20.169Z,10.31
2023-05-10T01:54:24.334Z,10.39
2023-05-10T01:55:31.736Z,10.39
2023-05-10T01:56:37.114Z,10.24
2023-05-10T01:57:42.122Z,10.19
2023-05-10T01:58:48.285Z,10.27
2023-05-10T01:59:51.975Z,10.25
2023-05-10T02:00:55.164Z,10.22
2023-05-10T02:02:00.506Z,10.14
2023-05-10T02:03:11.517Z,10.11
2023-05-10T02:04:17.878Z,10.22
2023-05-10T02:05:22.649Z,10.11
2023-05-10T02:06:27.652Z,10.23
2023-05-10T02:07:31.002Z,10.24
2023-05-10T02:08:36.860Z,10.41
2023-05-10T02:09:39.563Z,10.52
2023-05-10T02:10:43.931Z,10.30
2023-05-10T02:11:48.152Z,10.39
2023-05-10T02:12:52.399Z,10.55
2023-05-10T02:13:57.098Z,10.60
2023-05-10T02:15:06.715Z,10.37
2023-05-10T02:16:09.698Z,10.29
2023-05-10T02:17:12.853Z,10.40
2023-05-10T02:18:17.216Z,10.34
2023-05-10T02:19:20.974Z,10.41
2023-05-10T02:20:25.511Z,10.26
2023-05-10T02:21:30.119Z,10.17
2023-05-10T02:22:32.828Z,10.12
2023-05-10T02:23:36.326Z,10.12
2023-05-10T02:24:40.576Z,10.14
2023-05-10T02:25:44.689Z,10.19
2023-05-10T02:26:49.362Z,10.06
2023-05-10T02:27:54.993Z,10.06
2023-05-10T02:28:59.607Z,10.02
2023-05-10T02:30:02.580Z,9.89
2023-05-10T02:31:06.246Z,9.93
2023-05-10T02:32:11.020Z,10.04
2023-05-10T02:33:15.352Z,9.93
2023-05-10T02:34:18.233Z,9.93
2023-05-10T02:35:23.377Z,9.94
2023-05-10T02:36:28.442Z,9.88
2023-05-10T02:37:35.488Z,10.00
2023-05-10T02:38:41.102Z,9.87
2023-05-10T02:39:46.498Z,9.89
2023-05-10T02:40:49.325Z,10.02
2023-05-10T02:41:53.373Z,10.10
2023-05-10T02:42:58.224Z,10.08
2023-05-10T02:44:02.545Z,10.19
2023-05-10T02:45:12.030Z,10.27
2023-05-10T02:46:14.476Z,10.36
2023-05-10T02:47:17.039Z,10.23
2023-05-10T02:48:19.497Z,10.40
2023-05-10T02:49:21.894Z,10.54
2023-05-10T02:50:31.095Z,10.28
2023-05-10T02:51:37.199Z,10.23
2023-05-10T02:52:50.739Z,10.25
2023-05-10T02:53:55.066Z,10.30
2023-05-10T02:55:01.853Z,10.30
2023-05-10T02:56:09.130Z,10.17
2023-05-10T02:57:17.150Z,10.30
2023-05-10T02:58:22.136Z,10.34
2023-05-10T02:59:24.811Z,10.35
2023-05-10T03:00:27.116Z,10.27
2023-05-10T03:01:30.501Z,10.26
2023-05-10T03:02:33.952Z,10.34
2023-05-10T03:03:36.440Z,10.28
2023-05-10T03:04:39.333Z,10.22
2023-05-10T03:05:41.764Z,9.95
2023-05-10T03:06:44.878Z,9.97
2023-05-10T03:07:48.397Z,9.85
2023-05-10T03:08:50.770Z,9.85
2023-05-10T03:09:53.347Z,9.84
2023-05-10T03:11:11.355Z,10.05
2023-05-10T03:12:53.620Z,9.91
2023-05-10T03:14:17.762Z,9.82
2023-05-10T03:15:32.700Z,9.90
2023-05-10T03:16:47.834Z,9.69
2023-05-10T03:18:02.914Z,9.82
2023-05-10T03:19:21.084Z,9.86
2023-05-10T03:20:32.586Z,9.83
2023-05-10T03:21:39.036Z,9.80
2023-05-10T03:22:47.934Z,9.70
2023-05-10T03:23:57.543Z,9.71
2023-05-10T03:25:06.783Z,9.79
2023-05-10T03:26:10.960Z,10.01
2023-05-10T03:27:15.334Z,10.05
2023-05-10T03:28:20.044Z,10.04
2023-05-10T03:29:23.954Z,9.98
2023-05-10T03:30:26.801Z,10.04
2023-05-10T03:31:29.416Z,9.92
2023-05-10T03:32:33.523Z,9.83
2023-05-10T03:33:36.314Z,9.80
2023-05-10T03:34:43.791Z,9.88
2023-05-10T03:35:46.783Z,9.77
2023-05-10T03:36:50.572Z,9.85
2023-05-10T03:37:53.296Z,9.75
2023-05-10T03:38:56.302Z,9.64
2023-05-10T03:39:58.667Z,9.74
2023-05-10T03:41:00.968Z,9.71
2023-05-10T03:42:03.759Z,9.50
2023-05-10T03:43:07.085Z,9.55
2023-05-10T03:44:09.320Z,9.76
2023-05-10T03:45:11.856Z,9.90
2023-05-10T03:46:14.090Z,9.91
2023-05-10T03:47:17.283Z,9.95
2023-05-10T03:48:19.522Z,9.81
2023-05-10T03:49:21.769Z,9.90
2023-05-10T03:50:24.533Z,9.95
2023-05-10T03:51:29.341Z,9.96
2023-05-10T03:52:31.594Z,9.83
2023-05-10T03:53:33.853Z,9.69
2023-05-10T03:54:36.290Z,9.56
2023-05-10T03:55:38.530Z,9.53
2023-05-10T03:56:41.116Z,9.60
2023-05-10T03:57:43.447Z,9.64
2023-05-10T03:58:45.954Z,9.60
2023-05-10T03:59:48.146Z,9.52
2023-05-10T04:00:50.451Z,9.65
2023-05-10T04:01:52.717Z,9.65
2023-05-10T04:02:55.119Z,9.72
2023-05-10T04:03:57.526Z,9.71
2023-05-10T04:04:59.804Z,9.84
2023-05-10T04:06:03.248Z,9.86
2023-05-10T04:07:05.733Z,9.73
2023-05-10T04:08:08.162Z,9.79
2023-05-10T04:09:10.653Z,9.86
2023-05-10T04:10:13.707Z,10.07
2023-05-10T04:11:16.398Z,10.17
2023-05-10T04:12:18.614Z,9.96
2023-05-10T04:13:20.912Z,10.04
2023-05-10T04:14:23.447Z,9.86
2023-05-10T04:15:25.628Z,9.76
2023-05-10T04:16:27.991Z,9.90
2023-05-10T04:17:30.630Z,9.83
2023-05-10T04:18:32.992Z,9.90
2023-05-10T04:19:35.366Z,9.87
2023-05-10T04:20:37.773Z,9.85
2023-05-10T04:21:39.990Z,9.94
2023-05-10T04:22:42.428Z,9.99
2023-05-10T04:23:44.801Z,10.13
2023-05-10T04:24:46.967Z,9.94
2023-05-10T04:25:49.469Z,10.07
2023-05-10T04:26:52.056Z,10.16
2023-05-10T04:27:54.446Z,10.18
2023-05-10T04:28:56.633Z,10.08
2023-05-10T04:29:59.433Z,10.17
2023-05-10T04:31:06.375Z,10.32
2023-05-10T04:32:09.055Z,10.25
2023-05-10T04:33:11.450Z,10.18
2023-05-10T04:34:13.644Z,10.19
2023-05-10T04:35:16.030Z,10.03
2023-05-10T04:36:18.154Z,10.11
2023-05-10T04:37:22.263Z,10.17
2023-05-10T04:38:25.225Z,10.29
2023-05-10T04:39:27.381Z,10.30
2023-05-10T04:40:30.064Z,10.39
2023-05-10T04:41:32.382Z,10.51
2023-05-10T04:42:34.809Z,10.48
2023-05-10T04:43:37.907Z,10.57
2023-05-10T04:44:40.112Z,10.46
2023-05-10T04:45:42.333Z,10.44
2023-05-10T04:46:44.802Z,10.52
2023-05-10T04:47:47.132Z,10.56
2023-05-10T04:48:49.346Z,10.63
2023-05-10T04:49:51.674Z,10.61
2023-05-10T04:50:53.963Z,10.74
2023-05-10T04:51:56.456Z,10.75
2023-05-10T04:52:59.078Z,10.76
2023-05-10T04:54:06.547Z,10.67
2023-05-10T04:55:10.560Z,10.57
2023-05-10T04:56:12.958Z,10.63
2023-05-10T04:57:15.181Z,10.77
2023-05-10T04:58:17.546Z,10.98
2023-05-10T04:59:19.766Z,10.76
2023-05-10T05:00:22.085Z,10.81
2023-05-10T05:01:24.521Z,10.76
2023-05-10T05:02:26.797Z,10.73
2023-05-10T05:03:29.232Z,10.78
2023-05-10T05:04:32.161Z,10.91
2023-05-10T05:05:34.555Z,10.85
2023-05-10T05:06:36.818Z,10.83
2023-05-10T05:07:39.663Z,10.91
2023-05-10T05:08:41.913Z,10.90
2023-05-10T05:09:44.101Z,10.96
2023-05-10T05:10:46.336Z,11.09
2023-05-10T05:11:48.513Z,11.23
2023-05-10T05:12:50.909Z,11.23
2023-05-10T05:13:53.329Z,11.20
2023-05-10T05:14:55.496Z,11.14
2023-05-10T05:15:57.968Z,11.36
2023-05-10T05:17:00.143Z,11.51
2023-05-10T05:18:02.373Z,11.64
2023-05-10T05:19:04.820Z,11.71
2023-05-10T05:20:08.331Z,11.64
2023-05-10T05:21:20.474Z,11.65
2023-05-10T05:22:28.493Z,11.61
2023-05-10T05:23:31.343Z,11.85
2023-05-10T05:24:39.789Z,11.72
2023-05-10T05:25:43.005Z,11.72
2023-05-10T05:26:45.396Z,11.79
2023-05-10T05:27:47.583Z,11.86
2023-05-10T05:28:52.917Z,11.87
2023-05-10T05:29:55.654Z,11.91
2023-05-10T05:30:57.887Z,12.03
2023-05-10T05:32:00.459Z,11.92
2023-05-10T05:33:02.980Z,12.05
2023-05-10T05:34:05.468Z,12.03
2023-05-10T05:35:08.192Z,12.07
2023-05-10T05:36:10.392Z,12.20
2023-05-10T05:37:17.294Z,12.22
2023-05-10T05:38:19.727Z,12.33
2023-05-10T05:39:22.184Z,12.53
2023-05-10T05:40:24.387Z,12.62
2023-05-10T05:41:27.039Z,12.79
2023-05-10T05:42:29.282Z,12.84
2023-05-10T05:43:35.043Z,12.78
2023-05-10T05:44:39.544Z,13.01
2023-05-10T05:45:41.834Z,13.00
2023-05-10T05:46:44.230Z,12.98
2023-05-10T05:47:46.458Z,13.18
2023-05-10T05:48:49.003Z,13.42
2023-05-10T05:49:51.256Z,13.82
2023-05-10T05:50:57.564Z,14.23
2023-05-10T05:52:04.423Z,14.76
2023-05-10T05:53:06.586Z,15.32
2023-05-10T05:54:08.996Z,15.87
2023-05-10T05:55:11.298Z,16.14
2023-05-10T05:56:13.563Z,16.35
2023-05-10T05:57:16.000Z,16.01
2023-05-10T05:58:18.359Z,16.50
2023-05-10T05:59:20.724Z,17.11
2023-05-10T06:00:23.779Z,17.70
2023-05-10T06:01:26.188Z,17.38
2023-05-10T06:02:28.511Z,17.78
2023-05-10T06:03:31.076Z,18.24
2023-05-10T06:04:33.768Z,17.87
2023-05-10T06:05:35.978Z,17.82
2023-05-10T06:06:38.165Z,18.11
2023-05-10T06:07:43.207Z,18.25
2023-05-10T06:08:45.429Z,18.57
2023-05-10T06:09:48.084Z,18.43
2023-05-10T06:10:50.301Z,17.82
2023-05-10T06:11:52.506Z,17.86
2023-05-10T06:12:55.100Z,17.80
2023-05-10T06:13:57.317Z,17.77
2023-05-10T06:14:59.802Z,17.92
2023-05-10T06:16:03.765Z,18.13
2023-05-10T06:17:06.210Z,18.46
2023-05-10T06:18:08.728Z,18.52
2023-05-10T06:19:11.101Z,18.48
2023-05-10T06:20:14.114Z,18.71
2023-05-10T06:21:17.243Z,18.79
2023-05-10T06:22:19.648Z,19.48
2023-05-10T06:23:23.180Z,19.83
2023-05-10T06:24:25.864Z,20.05
2023-05-10T06:25:28.141Z,19.54
2023-05-10T06:26:30.596Z,19.80
2023-05-10T06:27:32.811Z,19.78
2023-05-10T06:28:35.047Z,20.37
2023-05-10T06:29:37.517Z,20.22
2023-05-10T06:30:40.878Z,19.76
2023-05-10T06:31:43.107Z,20.17
2023-05-10T06:32:46.216Z,20.25
2023-05-10T06:33:49.063Z,20.18
2023-05-10T06:34:51.441Z,20.25
2023-05-10T06:35:53.656Z,20.81
2023-05-10T06:36:56.027Z,20.67
2023-05-10T06:37:58.201Z,20.41
2023-05-10T06:39:00.588Z,21.09
2023-05-10T06:40:03.151Z,21.70
2023-05-10T06:41:05.470Z,21.24
2023-05-10T06:42:07.715Z,20.92
2023-05-10T06:43:10.887Z,21.40
2023-05-10T06:44:13.969Z,21.91
2023-05-10T06:45:17.736Z,22.24
2023-05-10T06:46:20.269Z,21.66
2023-05-10T06:47:23.103Z,20.88
2023-05-10T06:48:25.333Z,21.02
2023-05-10T06:49:27.603Z,21.30
2023-05-10T06:50:30.073Z,20.97
2023-05-10T06:51:32.520Z,21.66
2023-05-10T06:52:35.110Z,21.35
2023-05-10T06:53:37.492Z,21.25
2023-05-10T06:54:39.815Z,20.77
2023-05-10T06:55:42.206Z,20.54
2023-05-10T06:56:45.692Z,20.25
2023-05-10T06:57:48.616Z,20.72
2023-05-10T06:58:50.862Z,21.22
2023-05-10T06:59:53.732Z,21.44
2023-05-10T07:00:56.393Z,22.23
2023-05-10T07:01:58.989Z,22.93
2023-05-10T07:03:01.446Z,22.36
2023-05-10T07:04:03.732Z,22.48
2023-05-10T07:05:06.975Z,22.26
2023-05-10T07:06:15.649Z,21.74
2023-05-10T07:07:20.868Z,21.84
2023-05-10T07:08:23.034Z,21.87
2023-05-10T07:09:25.463Z,22.15
2023-05-10T07:10:27.941Z,22.17
2023-05-10T07:11:30.225Z,22.10
2023-05-10T07:12:32.526Z,22.21
2023-05-10T07:13:35.828Z,21.93
2023-05-10T07:14:38.293Z,22.39
2023-05-10T07:15:40.875Z,22.85
2023-05-10T07:16:43.257Z,23.15
2023-05-10T07:17:46.478Z,22.89
2023-05-10T07:18:49.102Z,21.91
2023-05-10T07:19:51.320Z,21.67
2023-05-10T07:20:53.920Z,21.62
2023-05-10T07:21:56.321Z,22.24
2023-05-10T07:22:58.484Z,22.76
2023-05-10T07:24:01.850Z,22.99
2023-05-10T07:25:04.806Z,22.41
2023-05-10T07:26:07.248Z,22.81
2023-05-10T07:27:10.111Z,22.95
2023-05-10T07:28:12.595Z,23.58
2023-05-10T07:29:14.840Z,23.05
2023-05-10T07:30:17.083Z,22.87
2023-05-10T07:31:19.754Z,23.19
2023-05-10T07:32:22.607Z,23.54
2023-05-10T07:33:24.862Z,23.59
2023-05-10T07:34:27.079Z,23.22
2023-05-10T07:35:29.245Z,23.53
2023-05-10T07:36:32.148Z,23.65
2023-05-10T07:37:34.403Z,23.80
2023-05-10T07:38:38.936Z,24.00
2023-05-10T07:39:42.529Z,23.96
2023-05-10T07:40:45.146Z,24.09
2023-05-10T07:41:47.634Z,24.62
2023-05-10T07:42:49.998Z,24.64
2023-05-10T07:43:52.451Z,24.69
2023-05-10T07:44:54.644Z,24.30
2023-05-10T07:45:58.737Z,23.94
2023-05-10T07:47:00.985Z,23.96
2023-05-10T07:48:03.310Z,22.87
2023-05-10T07:49:05.849Z,22.99
2023-05-10T07:50:08.829Z,22.22
2023-05-10T07:51:11.892Z,22.26
2023-05-10T07:52:14.685Z,22.31
2023-05-10T07:53:17.100Z,22.16
2023-05-10T07:54:19.482Z,22.99
2023-05-10T07:55:22.551Z,23.39
2023-05-10T07:56:26.107Z,23.84
2023-05-10T07:57:28.308Z,24.44
2023-05-10T07:58:31.146Z,24.58
2023-05-10T07:59:34.058Z,24.75
2023-05-10T08:00:36.447Z,24.12
2023-05-10T08:01:38.835Z,24.23
2023-05-10T08:02:41.962Z,24.28
2023-05-10T08:03:44.507Z,24.26
2023-05-10T08:04:50.640Z,24.64
2023-05-10T08:05:52.853Z,24.55
2023-05-10T08:06:55.297Z,24.67
2023-05-10T08:07:57.658Z,24.66
2023-05-10T08:09:00.133Z,23.65
2023-05-10T08:10:03.820Z,23.84
2023-05-10T08:11:06.004Z,23.95
2023-05-10T08:12:08.536Z,24.04
2023-05-10T08:13:12.401Z,23.70
2023-05-10T08:14:14.709Z,23.72
2023-05-10T08:15:17.229Z,23.99
2023-05-10T08:16:20.386Z,24.19
2023-05-10T08:17:23.474Z,24.47
2023-05-10T08:18:27.201Z,24.77
2023-05-10T08:19:29.485Z,24.54
2023-05-10T08:20:31.719Z,24.30
2023-05-10T08:21:34.215Z,24.08
2023-05-10T08:22:36.779Z,24.14
2023-05-10T08:23:40.364Z,23.29
2023-05-10T08:24:43.040Z,22.07
2023-05-10T08:25:45.380Z,22.42
2023-05-10T08:26:48.670Z,22.99
2023-05-10T08:27:51.716Z,23.31
2023-05-10T08:28:53.975Z,23.25
2023-05-10T08:29:56.454Z,23.68
2023-05-10T08:30:58.842Z,23.62
2023-05-10T08:32:02.029Z,23.85
2023-05-10T08:33:09.229Z,23.86
2023-05-10T08:34:11.507Z,23.84
2023-05-10T08:35:13.771Z,24.00
2023-05-10T08:36:20.692Z,24.11
2023-05-10T08:37:24.906Z,24.03
2023-05-10T08:38:27.182Z,23.96
2023-05-10T08:39:30.923Z,23.77
2023-05-10T08:40:33.240Z,23.54
2023-05-10T08:41:39.939Z,23.88
2023-05-10T08:42:51.755Z,24.05
2023-05-10T08:43:54.993Z,23.52
2023-05-10T08:44:58.383Z,23.36
2023-05-10T08:46:03.976Z,23.26
2023-05-10T08:47:08.070Z,23.06
2023-05-10T08:48:11.434Z,22.82
2023-05-10T08:49:19.600Z,22.76
2023-05-10T08:50:22.993Z,22.62
2023-05-10T08:51:27.862Z,22.60
2023-05-10T08:52:31.474Z,22.14
2023-05-10T08:53:37.523Z,22.90
2023-05-10T08:54:40.097Z,23.24
2023-05-10T08:55:43.767Z,23.66
2023-05-10T08:56:47.372Z,23.84
2023-05-10T08:57:51.997Z,23.63
2023-05-10T08:58:54.211Z,23.67
2023-05-10T08:59:56.394Z,23.99
2023-05-10T09:00:59.324Z,24.25
2023-05-10T09:02:02.512Z,24.53
2023-05-10T09:03:07.169Z,25.00
2023-05-10T09:04:09.502Z,25.34
2023-05-10T09:05:11.908Z,25.38
2023-05-10T09:06:14.761Z,24.94
2023-05-10T09:07:18.090Z,24.56
2023-05-10T09:08:21.367Z,24.55
2023-05-10T09:09:25.336Z,24.35
2023-05-10T09:10:29.050Z,23.93
2023-05-10T09:11:32.513Z,23.49
2023-05-10T09:12:34.739Z,23.56
2023-05-10T09:13:37.621Z,23.65
2023-05-10T09:14:40.554Z,23.88
2023-05-10T09:15:44.323Z,24.23
2023-05-10T09:16:47.014Z,24.33
2023-05-10T09:17:50.489Z,24.36
2023-05-10T09:18:53.396Z,24.64
2023-05-10T09:20:04.999Z,24.65
2023-05-10T09:21:07.253Z,24.50
2023-05-10T09:22:10.935Z,23.97
2023-05-10T09:23:13.182Z,23.66
2023-05-10T09:24:15.403Z,24.01
2023-05-10T09:25:18.331Z,24.31
2023-05-10T09:26:24.582Z,24.31
2023-05-10T09:27:29.782Z,24.59
2023-05-10T09:28:51.034Z,24.39
2023-05-10T09:29:55.399Z,24.30
2023-05-10T09:30:57.710Z,23.82
2023-05-10T09:32:00.202Z,23.90
2023-05-10T09:33:02.921Z,23.64
2023-05-10T09:34:05.557Z,23.71
2023-05-10T09:35:19.330Z,23.94
2023-05-10T09:36:21.682Z,24.26
2023-05-10T09:37:30.798Z,24.12
2023-05-10T09:38:49.810Z,24.29
2023-05-10T09:39:56.026Z,24.34
2023-05-10T09:40:58.768Z,24.13
2023-05-10T09:42:04.825Z,24.24
2023-05-10T09:43:08.692Z,24.08
2023-05-10T09:44:11.063Z,23.81
2023-05-10T09:45:13.270Z,23.97
2023-05-10T09:46:18.921Z,23.72
2023-05-10T09:47:21.320Z,23.82
2023-05-10T09:48:24.863Z,23.74
2023-05-10T09:49:27.837Z,23.29
2023-05-10T09:50:31.208Z,23.23
2023-05-10T09:51:36.167Z,23.64
2023-05-10T09:53:00.318Z,23.27
2023-05-10T09:54:16.642Z,23.42
2023-05-10T09:55:21.553Z,23.08
2023-05-10T09:56:44.073Z,23.66
2023-05-10T09:57:48.991Z,23.78
2023-05-10T09:59:04.022Z,23.64
2023-05-10T10:00:07.351Z,23.74
2023-05-10T10:01:15.718Z,23.73
2023-05-10T10:02:18.132Z,23.75
2023-05-10T10:03:22.171Z,23.28
2023-05-10T10:04:25.130Z,23.17
2023-05-10T10:05:31.872Z,23.03
2023-05-10T10:06:38.969Z,22.98
2023-05-10T10:07:41.447Z,23.17
2023-05-10T10:08:43.875Z,23.33
2023-05-10T10:09:46.768Z,23.26
2023-05-10T10:10:50.490Z,23.08
2023-05-10T10:11:53.530Z,23.25
2023-05-10T10:12:56.409Z,23.24
2023-05-10T10:13:59.204Z,22.52
2023-05-10T10:15:02.463Z,22.27
2023-05-10T10:16:05.136Z,22.67
2023-05-10T10:17:09.150Z,22.92
2023-05-10T10:18:18.442Z,23.17
2023-05-10T10:19:21.633Z,23.38
2023-05-10T10:20:25.010Z,23.33
2023-05-10T10:21:27.927Z,23.25
2023-05-10T10:22:30.426Z,23.18
2023-05-10T10:23:32.812Z,23.38
2023-05-10T10:24:35.176Z,23.48
2023-05-10T10:25:39.000Z,23.11
2023-05-10T10:26:43.811Z,23.30
2023-05-10T10:27:52.021Z,23.33
2023-05-10T10:29:41.594Z,23.41
2023-05-10T10:30:48.194Z,22.74
2023-05-10T10:32:02.871Z,22.62
2023-05-10T10:33:32.043Z,22.38
2023-05-10T10:34:34.976Z,22.61
2023-05-10T10:35:37.681Z,22.40
2023-05-10T10:36:47.547Z,22.59
2023-05-10T10:37:51.845Z,22.40
2023-05-10T10:39:01.571Z,21.91
2023-05-10T10:40:33.592Z,21.87
2023-05-10T10:41:41.841Z,22.20
2023-05-10T10:42:50.945Z,22.26
2023-05-10T10:44:30.336Z,22.05
2023-05-10T10:45:32.808Z,21.99
2023-05-10T10:46:35.472Z,21.62
2023-05-10T10:47:38.650Z,21.92
2023-05-10T10:48:42.735Z,22.05
2023-05-10T10:50:08.996Z,21.97
2023-05-10T10:51:12.914Z,21.58
2023-05-10T10:52:34.616Z,21.70
2023-05-10T10:53:38.188Z,21.81
2023-05-10T10:54:48.038Z,22.03
2023-05-10T10:55:50.223Z,22.13
2023-05-10T10:57:12.769Z,21.80
2023-05-10T10:58:35.263Z,21.66
2023-05-10T10:59:42.013Z,21.46
2023-05-10T11:00:46.358Z,21.30
2023-05-10T11:01:53.125Z,21.35
2023-05-10T11:03:03.743Z,21.51
2023-05-10T11:04:05.949Z,21.60
2023-05-10T11:05:34.107Z,21.79
2023-05-10T11:06:37.193Z,22.03
2023-05-10T11:07:59.480Z,21.77
2023-05-10T11:09:09.628Z,21.90
2023-05-10T11:10:12.383Z,21.86
2023-05-10T11:11:16.207Z,21.46
2023-05-10T11:12:18.440Z,21.29
2023-05-10T11:13:31.019Z,21.48
2023-05-10T11:14:33.292Z,21.74
2023-05-10T11:15:38.533Z,21.94
2023-05-10T11:16:45.126Z,22.11
2023-05-10T11:17:53.012Z,22.34
2023-05-10T11:18:55.330Z,22.18
2023-05-10T11:20:25.889Z,22.26
2023-05-10T11:21:28.235Z,22.32
2023-05-10T11:22:51.961Z,22.51
2023-05-10T11:23:59.250Z,22.32
2023-05-10T11:25:02.306Z,22.18
2023-05-10T11:26:05.886Z,22.18
2023-05-10T11:27:08.193Z,22.14
2023-05-10T11:28:11.288Z,22.21
2023-05-10T11:29:14.701Z,22.07
2023-05-10T11:30:18.404Z,21.96
2023-05-10T11:31:21.936Z,22.00
2023-05-10T11:32:24.494Z,22.15
2023-05-10T11:33:27.051Z,22.20
2023-05-10T11:34:35.843Z,22.40
2023-05-10T11:35:43.041Z,22.16
2023-05-10T11:36:52.695Z,22.18
2023-05-10T11:37:55.062Z,22.19
2023-05-10T11:38:57.979Z,22.19
2023-05-10T11:40:00.188Z,22.13
2023-05-10T11:41:02.406Z,21.83
2023-05-10T11:42:04.817Z,22.10
2023-05-10T11:43:07.441Z,22.34
2023-05-10T11:44:10.491Z,22.57
2023-05-10T11:45:12.735Z,22.75
2023-05-10T11:46:14.935Z,22.93
2023-05-10T11:47:17.275Z,22.81
2023-05-10T11:48:23.261Z,22.89
2023-05-10T11:49:26.985Z,22.87
2023-05-10T11:50:29.785Z,22.53
2023-05-10T11:51:36.138Z,22.73
2023-05-10T11:52:38.764Z,22.72
2023-05-10T11:53:40.929Z,22.67
2023-05-10T11:54:55.913Z,22.56
2023-05-10T11:56:07.430Z,22.49
2023-05-10T11:57:09.742Z,22.69
2023-05-10T11:58:12.158Z,22.76
2023-05-10T11:59:15.872Z,22.58
2023-05-10T12:00:18.497Z,22.53
2023-05-10T12:01:22.454Z,22.19
2023-05-10T12:02:25.263Z,22.30
2023-05-10T12:03:29.234Z,22.31
2023-05-10T12:04:32.214Z,22.28
2023-05-10T12:05:35.255Z,22.38
2023-05-10T12:06:41.514Z,22.39
2023-05-10T12:07:43.851Z,22.44
2023-05-10T12:08:47.751Z,22.38
2023-05-10T12:10:05.024Z,22.59
2023-05-10T12:11:09.479Z,22.78
2023-05-10T12:12:17.278Z,22.94
2023-05-10T12:13:21.546Z,22.26
2023-05-10T12:14:23.924Z,21.97
2023-05-10T12:15:26.550Z,22.20
2023-05-10T12:16:30.534Z,22.10
2023-05-10T12:17:33.039Z,22.24
2023-05-10T12:18:35.325Z,21.99
2023-05-10T12:19:40.557Z,21.88
2023-05-10T12:20:42.970Z,22.13
2023-05-10T12:21:45.519Z,22.50
2023-05-10T12:22:48.690Z,22.72
2023-05-10T12:23:56.593Z,22.70
2023-05-10T12:24:59.808Z,22.62
2023-05-10T12:26:06.050Z,22.57
2023-05-10T12:27:11.177Z,22.57
2023-05-10T12:28:13.602Z,22.91
2023-05-10T12:29:17.875Z,23.03
2023-05-10T12:30:24.964Z,23.23
2023-05-10T12:31:27.734Z,23.44
2023-05-10T12:32:42.572Z,23.51
2023-05-10T12:33:46.282Z,23.23
2023-05-10T12:34:49.164Z,22.65
2023-05-10T12:35:54.265Z,22.62
2023-05-10T12:36:56.842Z,22.74
2023-05-10T12:37:59.897Z,22.85
2023-05-10T12:39:05.907Z,22.79
2023-05-10T12:40:10.426Z,22.67
2023-05-10T12:41:14.575Z,22.66
2023-05-10T12:42:17.589Z,22.65
2023-05-10T12:43:19.954Z,22.93
2023-05-10T12:44:22.353Z,23.07
2023-05-10T12:45:25.027Z,23.34
2023-05-10T12:46:29.128Z,23.70
2023-05-10T12:47:31.617Z,23.80
2023-05-10T12:48:35.106Z,23.76
2023-05-10T12:49:37.395Z,23.55
2023-05-10T12:50:39.686Z,23.44
2023-05-10T12:51:42.314Z,23.52
2023-05-10T12:52:44.569Z,23.63
2023-05-10T12:53:49.726Z,23.72
2023-05-10T12:54:52.140Z,23.82
2023-05-10T12:55:54.918Z,23.94
2023-05-10T12:56:57.531Z,23.76
2023-05-10T12:57:59.854Z,23.62
2023-05-10T12:59:02.164Z,23.49
2023-05-10T13:00:06.367Z,23.39
2023-05-10T13:01:09.594Z,23.33
2023-05-10T13:02:11.880Z,23.20
2023-05-10T13:03:14.620Z,23.23
2023-05-10T13:04:16.959Z,23.27
2023-05-10T13:05:19.349Z,23.40
2023-05-10T13:06:21.804Z,23.39
2023-05-10T13:07:24.193Z,23.48
2023-05-10T13:08:26.583Z,23.29
2023-05-10T13:09:31.966Z,23.27
2023-05-10T13:10:34.368Z,23.33
2023-05-10T13:11:36.623Z,23.40
2023-05-10T13:12:38.989Z,23.57
2023-05-10T13:13:41.324Z,23.32
2023-05-10T13:14:44.022Z,23.11
2023-05-10T13:15:46.237Z,23.39
2023-05-10T13:16:48.781Z,23.62
2023-05-10T13:17:51.319Z,23.81
2023-05-10T13:18:53.605Z,23.29
2023-05-10T13:19:56.054Z,23.07
2023-05-10T13:20:58.518Z,23.21
2023-05-10T13:22:00.821Z,23.40
2023-05-10T13:23:03.695Z,23.18
2023-05-10T13:24:06.719Z,23.18
2023-05-10T13:25:09.537Z,23.33
2023-05-10T13:26:11.956Z,23.56
2023-05-10T13:27:14.321Z,23.59
2023-05-10T13:28:16.499Z,23.73
2023-05-10T13:29:19.185Z,23.78
2023-05-10T13:30:21.585Z,23.88
2023-05-10T13:31:23.848Z,23.30
2023-05-10T13:32:27.194Z,23.31
2023-05-10T13:33:29.424Z,23.59
2023-05-10T13:34:31.659Z,23.55
2023-05-10T13:35:34.014Z,23.79
2023-05-10T13:36:36.257Z,23.75
2023-05-10T13:37:39.228Z,24.10
2023-05-10T13:38:41.438Z,24.38
2023-05-10T13:39:43.757Z,24.07
2023-05-10T13:40:46.218Z,23.94
2023-05-10T13:41:48.647Z,24.16
2023-05-10T13:42:51.383Z,24.29
2023-05-10T13:43:53.616Z,24.40
2023-05-10T13:44:55.816Z,23.84
2023-05-10T13:45:58.261Z,24.01
2023-05-10T13:47:00.821Z,24.14
2023-05-10T13:48:03.587Z,24.27
2023-05-10T13:49:05.989Z,23.88
2023-05-10T13:50:08.840Z,23.50
2023-05-10T13:51:11.066Z,23.50
2023-05-10T13:52:13.505Z,23.55
2023-05-10T13:53:15.981Z,23.56
2023-05-10T13:54:20.529Z,23.23
2023-05-10T13:55:23.326Z,23.29
2023-05-10T13:56:25.589Z,23.34
2023-05-10T13:57:29.838Z,23.44